sensor_id;sensor_type;location;lat;lon;timestamp;temperature;humidity
55008;DHT22;40902;45.116;21.296;2024-03-25T00:44:24;204.80;2252.80
55008;DHT22;40902;45.116;21.296;2024-03-25T00:46:50;179.90;2252.80
55008;DHT22;40902;45.116;21.296;2024-03-25T00:49:17;179.90;2252.80
55008;DHT22;40902;45.116;21.296;2024-03-25T00:51:43;179.90;2252.80
55008;DHT22;40902;45.116;21.296;2024-03-25T00:54:08;179.90;2252.80
55008;DHT22;40902;45.116;21.296;2024-03-25T00:56:34;179.90;2252.80
55008;DHT22;40902;45.116;21.296;2024-03-25T00:59:00;179.70;2252.80
55008;DHT22;40902;45.116;21.296;2024-03-25T01:01:29;179.90;2252.80
55008;DHT22;40902;45.116;21.296;2024-03-25T01:03:55;179.90;2252.80
55008;DHT22;40902;45.116;21.296;2024-03-25T01:06:21;179.70;2252.80
55008;DHT22;40902;45.116;21.296;2024-03-25T01:08:48;179.50;2252.80
55008;DHT22;40902;45.116;21.296;2024-03-25T01:11:14;179.40;2252.80
55008;DHT22;40902;45.116;21.296;2024-03-25T01:13:39;179.40;2252.80
55008;DHT22;40902;45.116;21.296;2024-03-25T01:16:07;179.50;2252.80
55008;DHT22;40902;45.116;21.296;2024-03-25T01:18:33;179.40;2252.80
55008;DHT22;40902;45.116;21.296;2024-03-25T01:20:59;179.40;2252.80
55008;DHT22;40902;45.116;21.296;2024-03-25T01:23:25;179.50;2252.80
55008;DHT22;40902;45.116;21.296;2024-03-25T01:25:51;179.60;2252.80
55008;DHT22;40902;45.116;21.296;2024-03-25T01:28:16;179.60;2252.80
55008;DHT22;40902;45.116;21.296;2024-03-25T01:30:42;179.60;2252.80
55008;DHT22;40902;45.116;21.296;2024-03-25T01:33:09;179.70;2252.80
55008;DHT22;40902;45.116;21.296;2024-03-25T01:35:34;179.70;2252.80
55008;DHT22;40902;45.116;21.296;2024-03-25T01:38:01;179.70;2252.80
55008;DHT22;40902;45.116;21.296;2024-03-25T01:40:27;179.50;2252.80
55008;DHT22;40902;45.116;21.296;2024-03-25T01:43:00;179.50;2252.80
55008;DHT22;40902;45.116;21.296;2024-03-25T01:45:29;179.50;2252.80
55008;DHT22;40902;45.116;21.296;2024-03-25T01:47:56;179.70;2252.80
55008;DHT22;40902;45.116;21.296;2024-03-25T01:50:22;179.70;2252.80
55008;DHT22;40902;45.116;21.296;2024-03-25T01:52:49;179.50;2252.80
55008;DHT22;40902;45.116;21.296;2024-03-25T01:55:18;179.20;2252.80
55008;DHT22;40902;45.116;21.296;2024-03-25T01:57:46;154.40;2252.80
55008;DHT22;40902;45.116;21.296;2024-03-25T02:00:13;154.50;2252.80
55008;DHT22;40902;45.116;21.296;2024-03-25T02:02:42;154.50;2252.80
55008;DHT22;40902;45.116;21.296;2024-03-25T02:05:10;179.20;2252.80
55008;DHT22;40902;45.116;21.296;2024-03-25T02:07:36;179.20;2252.80
55008;DHT22;40902;45.116;21.296;2024-03-25T02:10:05;179.20;2252.80
55008;DHT22;40902;45.116;21.296;2024-03-25T02:12:31;179.20;2252.80
55008;DHT22;40902;45.116;21.296;2024-03-25T02:14:59;179.30;2252.80
55008;DHT22;40902;45.116;21.296;2024-03-25T02:17:25;179.40;2252.80
55008;DHT22;40902;45.116;21.296;2024-03-25T02:19:51;179.40;2252.80
55008;DHT22;40902;45.116;21.296;2024-03-25T02:22:17;179.50;2252.80
55008;DHT22;40902;45.116;21.296;2024-03-25T02:24:46;179.70;2252.80
55008;DHT22;40902;45.116;21.296;2024-03-25T02:27:15;179.80;2252.80
55008;DHT22;40902;45.116;21.296;2024-03-25T02:29:42;179.70;2252.80
55008;DHT22;40902;45.116;21.296;2024-03-25T02:32:08;179.80;2252.80
55008;DHT22;40902;45.116;21.296;2024-03-25T02:34:37;179.80;2252.80
55008;DHT22;40902;45.116;21.296;2024-03-25T02:37:03;179.60;2252.80
55008;DHT22;40902;45.116;21.296;2024-03-25T02:39:29;179.70;2252.80
55008;DHT22;40902;45.116;21.296;2024-03-25T02:41:55;179.80;2252.80
55008;DHT22;40902;45.116;21.296;2024-03-25T02:44:23;179.90;2252.80
55008;DHT22;40902;45.116;21.296;2024-03-25T02:46:49;179.80;2252.80
55008;DHT22;40902;45.116;21.296;2024-03-25T02:49:15;179.80;2252.80
55008;DHT22;40902;45.116;21.296;2024-03-25T02:51:41;179.90;2252.80
55008;DHT22;40902;45.116;21.296;2024-03-25T02:54:07;179.90;2252.80
55008;DHT22;40902;45.116;21.296;2024-03-25T02:56:34;179.70;2252.80
55008;DHT22;40902;45.116;21.296;2024-03-25T02:59:01;179.70;2252.80
55008;DHT22;40902;45.116;21.296;2024-03-25T03:01:27;179.60;2252.80
55008;DHT22;40902;45.116;21.296;2024-03-25T03:03:53;179.70;2252.80
55008;DHT22;40902;45.116;21.296;2024-03-25T03:06:18;179.80;2252.80
55008;DHT22;40902;45.116;21.296;2024-03-25T03:08:45;179.80;2252.80
55008;DHT22;40902;45.116;21.296;2024-03-25T03:11:10;179.80;2252.80
55008;DHT22;40902;45.116;21.296;2024-03-25T03:13:36;179.80;2252.80
55008;DHT22;40902;45.116;21.296;2024-03-25T03:16:02;179.90;2252.80
55008;DHT22;40902;45.116;21.296;2024-03-25T03:18:28;179.90;2252.80
55008;DHT22;40902;45.116;21.296;2024-03-25T03:20:54;179.80;2252.80
55008;DHT22;40902;45.116;21.296;2024-03-25T03:23:22;179.70;2252.80
55008;DHT22;40902;45.116;21.296;2024-03-25T03:25:48;179.60;2252.80
55008;DHT22;40902;45.116;21.296;2024-03-25T03:28:14;179.50;2252.80
55008;DHT22;40902;45.116;21.296;2024-03-25T03:30:43;179.50;2252.80
55008;DHT22;40902;45.116;21.296;2024-03-25T03:33:09;179.60;2252.80
55008;DHT22;40902;45.116;21.296;2024-03-25T03:35:35;179.70;2252.80
55008;DHT22;40902;45.116;21.296;2024-03-25T03:38:01;179.70;2252.80
55008;DHT22;40902;45.116;21.296;2024-03-25T03:40:28;179.70;2252.80
55008;DHT22;40902;45.116;21.296;2024-03-25T03:42:55;179.70;2252.80
55008;DHT22;40902;45.116;21.296;2024-03-25T03:45:23;179.70;2252.80
55008;DHT22;40902;45.116;21.296;2024-03-25T03:47:49;179.70;2252.80
55008;DHT22;40902;45.116;21.296;2024-03-25T03:50:15;179.70;2252.80
55008;DHT22;40902;45.116;21.296;2024-03-25T03:52:41;179.60;2252.80
55008;DHT22;40902;45.116;21.296;2024-03-25T03:55:07;179.50;2252.80
55008;DHT22;40902;45.116;21.296;2024-03-25T03:57:33;179.40;2252.80
55008;DHT22;40902;45.116;21.296;2024-03-25T03:59:59;179.20;2252.80
55008;DHT22;40902;45.116;21.296;2024-03-25T04:02:27;154.50;2252.80
55008;DHT22;40902;45.116;21.296;2024-03-25T04:04:54;154.50;2252.80
55008;DHT22;40902;45.116;21.296;2024-03-25T04:07:20;154.40;2252.80
55008;DHT22;40902;45.116;21.296;2024-03-25T04:09:48;154.30;2252.80
55008;DHT22;40902;45.116;21.296;2024-03-25T04:12:13;154.50;2252.80
55008;DHT22;40902;45.116;21.296;2024-03-25T04:14:39;179.20;2252.80
55008;DHT22;40902;45.116;21.296;2024-03-25T04:17:05;179.30;2252.80
55008;DHT22;40902;45.116;21.296;2024-03-25T04:19:31;179.30;2252.80
55008;DHT22;40902;45.116;21.296;2024-03-25T04:21:57;179.40;2252.80
55008;DHT22;40902;45.116;21.296;2024-03-25T04:24:23;179.40;2252.80
55008;DHT22;40902;45.116;21.296;2024-03-25T04:26:49;179.50;2252.80
55008;DHT22;40902;45.116;21.296;2024-03-25T04:29:15;179.40;2252.80
55008;DHT22;40902;45.116;21.296;2024-03-25T04:31:41;179.50;2252.80
55008;DHT22;40902;45.116;21.296;2024-03-25T04:34:07;179.40;2252.80
55008;DHT22;40902;45.116;21.296;2024-03-25T04:36:33;179.50;2252.80
55008;DHT22;40902;45.116;21.296;2024-03-25T04:38:59;179.60;2252.80
55008;DHT22;40902;45.116;21.296;2024-03-25T04:41:25;179.60;2252.80
55008;DHT22;40902;45.116;21.296;2024-03-25T04:43:51;179.60;2252.80
55008;DHT22;40902;45.116;21.296;2024-03-25T04:46:17;179.60;2252.80
55008;DHT22;40902;45.116;21.296;2024-03-25T04:48:43;179.70;2252.80
55008;DHT22;40902;45.116;21.296;2024-03-25T04:51:09;179.60;2252.80
55008;DHT22;40902;45.116;21.296;2024-03-25T04:53:35;179.60;2252.80
55008;DHT22;40902;45.116;21.296;2024-03-25T04:56:01;179.40;2252.80
55008;DHT22;40902;45.116;21.296;2024-03-25T04:58:27;179.60;2252.80
55008;DHT22;40902;45.116;21.296;2024-03-25T05:00:52;179.60;2252.80
55008;DHT22;40902;45.116;21.296;2024-03-25T05:03:19;179.70;2252.80
55008;DHT22;40902;45.116;21.296;2024-03-25T05:05:45;179.60;2252.80
55008;DHT22;40902;45.116;21.296;2024-03-25T05:08:10;179.60;2252.80
55008;DHT22;40902;45.116;21.296;2024-03-25T05:10:36;179.50;2252.80
55008;DHT22;40902;45.116;21.296;2024-03-25T05:13:02;179.40;2252.80
55008;DHT22;40902;45.116;21.296;2024-03-25T05:15:28;179.40;2252.80
55008;DHT22;40902;45.116;21.296;2024-03-25T05:17:54;179.40;2252.80
55008;DHT22;40902;45.116;21.296;2024-03-25T05:20:19;179.50;2252.80
55008;DHT22;40902;45.116;21.296;2024-03-25T05:22:46;179.60;2252.80
55008;DHT22;40902;45.116;21.296;2024-03-25T05:25:12;179.60;2252.80
55008;DHT22;40902;45.116;21.296;2024-03-25T05:27:38;179.70;2252.80
55008;DHT22;40902;45.116;21.296;2024-03-25T05:30:05;179.80;2252.80
55008;DHT22;40902;45.116;21.296;2024-03-25T05:32:31;179.70;2252.80
55008;DHT22;40902;45.116;21.296;2024-03-25T05:34:56;179.60;2252.80
55008;DHT22;40902;45.116;21.296;2024-03-25T05:37:22;179.60;2252.80
55008;DHT22;40902;45.116;21.296;2024-03-25T05:39:48;179.70;2252.80
55008;DHT22;40902;45.116;21.296;2024-03-25T05:42:14;179.90;2252.80
55008;DHT22;40902;45.116;21.296;2024-03-25T05:44:40;180.00;2252.80
55008;DHT22;40902;45.116;21.296;2024-03-25T05:47:05;180.10;2252.80
55008;DHT22;40902;45.116;21.296;2024-03-25T05:49:31;180.00;2252.80
55008;DHT22;40902;45.116;21.296;2024-03-25T05:51:57;204.80;2252.80
55008;DHT22;40902;45.116;21.296;2024-03-25T05:54:23;204.80;2252.80
55008;DHT22;40902;45.116;21.296;2024-03-25T05:56:49;204.90;2252.80
55008;DHT22;40902;45.116;21.296;2024-03-25T05:59:14;204.90;2252.80
55008;DHT22;40902;45.116;21.296;2024-03-25T06:01:40;205.00;2252.80
55008;DHT22;40902;45.116;21.296;2024-03-25T06:04:06;205.10;2252.80
55008;DHT22;40902;45.116;21.296;2024-03-25T06:06:32;205.20;2252.80
55008;DHT22;40902;45.116;21.296;2024-03-25T06:08:58;205.30;2252.80
55008;DHT22;40902;45.116;21.296;2024-03-25T06:11:23;205.20;2252.80
55008;DHT22;40902;45.116;21.296;2024-03-25T06:13:49;205.30;2252.80
55008;DHT22;40902;45.116;21.296;2024-03-25T06:16:15;205.40;2252.80
55008;DHT22;40902;45.116;21.296;2024-03-25T06:18:41;205.40;2252.80
55008;DHT22;40902;45.116;21.296;2024-03-25T06:21:07;205.40;2252.80
55008;DHT22;40902;45.116;21.296;2024-03-25T06:23:33;205.40;2252.80
55008;DHT22;40902;45.116;21.296;2024-03-25T06:25:59;205.40;2252.80
55008;DHT22;40902;45.116;21.296;2024-03-25T06:28:25;230.50;2252.80
55008;DHT22;40902;45.116;21.296;2024-03-25T06:30:51;230.40;2252.80
55008;DHT22;40902;45.116;21.296;2024-03-25T06:33:36;205.60;2252.80
55008;DHT22;40902;45.116;21.296;2024-03-25T06:36:21;205.60;2252.80
55008;DHT22;40902;45.116;21.296;2024-03-25T06:38:47;205.50;2252.80
55008;DHT22;40902;45.116;21.296;2024-03-25T06:41:13;205.50;2252.80
55008;DHT22;40902;45.116;21.296;2024-03-25T06:43:39;205.50;2252.80
55008;DHT22;40902;45.116;21.296;2024-03-25T06:46:06;205.40;2252.80
55008;DHT22;40902;45.116;21.296;2024-03-25T06:48:35;205.60;2252.80
55008;DHT22;40902;45.116;21.296;2024-03-25T06:51:02;205.60;2252.80
55008;DHT22;40902;45.116;21.296;2024-03-25T06:53:31;230.70;2252.80
55008;DHT22;40902;45.116;21.296;2024-03-25T06:55:58;205.70;2252.80
55008;DHT22;40902;45.116;21.296;2024-03-25T06:58:26;205.70;2252.80
55008;DHT22;40902;45.116;21.296;2024-03-25T07:00:52;205.70;2252.80
55008;DHT22;40902;45.116;21.296;2024-03-25T07:03:19;205.70;2252.80
55008;DHT22;40902;45.116;21.296;2024-03-25T07:05:49;230.40;2252.80
55008;DHT22;40902;45.116;21.296;2024-03-25T07:08:18;230.40;2252.80
55008;DHT22;40902;45.116;21.296;2024-03-25T07:10:45;230.40;2252.80
55008;DHT22;40902;45.116;21.296;2024-03-25T07:13:12;230.80;2252.80
55008;DHT22;40902;45.116;21.296;2024-03-25T07:15:38;230.80;2252.80
55008;DHT22;40902;45.116;21.296;2024-03-25T07:18:04;230.70;2252.80
55008;DHT22;40902;45.116;21.296;2024-03-25T07:20:31;230.70;2252.80
55008;DHT22;40902;45.116;21.296;2024-03-25T07:22:57;230.70;2252.80
55008;DHT22;40902;45.116;21.296;2024-03-25T07:25:24;230.80;2252.80
55008;DHT22;40902;45.116;21.296;2024-03-25T07:27:50;230.90;2252.80
55008;DHT22;40902;45.116;21.296;2024-03-25T07:30:16;230.90;2252.80
55008;DHT22;40902;45.116;21.296;2024-03-25T07:32:42;230.80;2252.80
55008;DHT22;40902;45.116;21.296;2024-03-25T07:35:11;230.80;2252.80
55008;DHT22;40902;45.116;21.296;2024-03-25T07:37:36;230.80;2252.80
55008;DHT22;40902;45.116;21.296;2024-03-25T07:40:03;231.00;2252.80
55008;DHT22;40902;45.116;21.296;2024-03-25T07:42:32;231.00;2252.80
55008;DHT22;40902;45.116;21.296;2024-03-25T07:47:25;256.50;2252.80
55008;DHT22;40902;45.116;21.296;2024-03-25T07:49:51;256.20;2252.80
55008;DHT22;40902;45.116;21.296;2024-03-25T07:52:17;256.20;2252.80
55008;DHT22;40902;45.116;21.296;2024-03-25T07:54:44;256.00;2252.80
55008;DHT22;40902;45.116;21.296;2024-03-25T07:57:09;256.10;2252.80
55008;DHT22;40902;45.116;21.296;2024-03-25T07:59:35;256.40;2252.80
55008;DHT22;40902;45.116;21.296;2024-03-25T08:02:01;256.30;2252.80
55008;DHT22;40902;45.116;21.296;2024-03-25T08:04:27;256.40;2252.80
55008;DHT22;40902;45.116;21.296;2024-03-25T08:06:53;256.30;2252.80
55008;DHT22;40902;45.116;21.296;2024-03-25T08:09:18;256.30;2252.80
55008;DHT22;40902;45.116;21.296;2024-03-25T08:11:45;256.40;2252.80
55008;DHT22;40902;45.116;21.296;2024-03-25T08:14:11;256.30;2252.80
55008;DHT22;40902;45.116;21.296;2024-03-25T08:16:37;256.60;2252.80
55008;DHT22;40902;45.116;21.296;2024-03-25T08:19:04;256.60;2252.80
55008;DHT22;40902;45.116;21.296;2024-03-25T08:21:29;256.80;2252.80
55008;DHT22;40902;45.116;21.296;2024-03-25T08:23:55;256.70;2252.80
55008;DHT22;40902;45.116;21.296;2024-03-25T08:26:21;256.50;2252.80
55008;DHT22;40902;45.116;21.296;2024-03-25T08:28:47;256.60;2252.80
55008;DHT22;40902;45.116;21.296;2024-03-25T08:31:15;256.60;2252.80
55008;DHT22;40902;45.116;21.296;2024-03-25T08:33:41;256.70;2252.80
55008;DHT22;40902;45.116;21.296;2024-03-25T08:36:07;256.70;2252.80
55008;DHT22;40902;45.116;21.296;2024-03-25T08:38:33;256.60;2252.80
55008;DHT22;40902;45.116;21.296;2024-03-25T08:40:59;256.70;2252.80
55008;DHT22;40902;45.116;21.296;2024-03-25T08:43:25;256.90;2252.80
55008;DHT22;40902;45.116;21.296;2024-03-25T08:48:17;282.00;2278.40
55008;DHT22;40902;45.116;21.296;2024-03-25T09:40:03;333.20;2329.60
55008;DHT22;40902;45.116;21.296;2024-03-25T09:42:48;333.10;2329.60
55008;DHT22;40902;45.116;21.296;2024-03-25T09:45:16;333.00;2329.60
55008;DHT22;40902;45.116;21.296;2024-03-25T09:47:47;333.00;2329.60
55008;DHT22;40902;45.116;21.296;2024-03-25T10:52:05;333.00;2329.60
55008;DHT22;40902;45.116;21.296;2024-03-25T10:54:33;332.90;2329.60
55008;DHT22;40902;45.116;21.296;2024-03-25T10:56:59;333.20;2329.60
55008;DHT22;40902;45.116;21.296;2024-03-25T10:59:30;333.40;2329.60
55008;DHT22;40902;45.116;21.296;2024-03-25T11:01:56;333.10;2329.60
55008;DHT22;40902;45.116;21.296;2024-03-25T11:04:23;333.20;2329.60
55008;DHT22;40902;45.116;21.296;2024-03-25T11:06:50;333.00;2329.60
55008;DHT22;40902;45.116;21.296;2024-03-25T11:09:23;332.80;2329.60
55008;DHT22;40902;45.116;21.296;2024-03-25T11:11:54;307.40;2304.00
55008;DHT22;40902;45.116;21.296;2024-03-25T11:29:07;256.70;2252.80
55008;DHT22;40902;45.116;21.296;2024-03-25T11:34:06;231.30;2252.80
55008;DHT22;40902;45.116;21.296;2024-03-25T11:36:34;230.90;2252.80
55008;DHT22;40902;45.116;21.296;2024-03-25T11:39:04;230.60;2252.80
55008;DHT22;40902;45.116;21.296;2024-03-25T11:41:32;230.40;2252.80
55008;DHT22;40902;45.116;21.296;2024-03-25T11:43:58;205.70;2252.80
55008;DHT22;40902;45.116;21.296;2024-03-25T11:46:25;230.50;2252.80
55008;DHT22;40902;45.116;21.296;2024-03-25T11:48:51;230.60;2252.80
55008;DHT22;40902;45.116;21.296;2024-03-25T11:51:18;230.80;2252.80
55008;DHT22;40902;45.116;21.296;2024-03-25T11:53:44;231.00;2252.80
55008;DHT22;40902;45.116;21.296;2024-03-25T11:56:11;231.30;2252.80
55008;DHT22;40902;45.116;21.296;2024-03-25T11:58:38;256.20;2252.80
55008;DHT22;40902;45.116;21.296;2024-03-25T12:01:04;256.60;2252.80
55008;DHT22;40902;45.116;21.296;2024-03-25T12:03:30;256.90;2252.80
55008;DHT22;40902;45.116;21.296;2024-03-25T12:05:56;281.60;2278.40
55008;DHT22;40902;45.116;21.296;2024-03-25T12:08:23;281.80;2278.40
55008;DHT22;40902;45.116;21.296;2024-03-25T12:10:53;281.80;2278.40
55008;DHT22;40902;45.116;21.296;2024-03-25T12:13:40;282.30;2278.40
55008;DHT22;40902;45.116;21.296;2024-03-25T12:16:08;282.30;2278.40
55008;DHT22;40902;45.116;21.296;2024-03-25T12:18:35;282.40;2278.40
55008;DHT22;40902;45.116;21.296;2024-03-25T12:21:05;307.40;2304.00
55008;DHT22;40902;45.116;21.296;2024-03-25T12:57:56;333.40;2329.60
55008;DHT22;40902;45.116;21.296;2024-03-25T13:00:22;333.20;2329.60
55008;DHT22;40902;45.116;21.296;2024-03-25T13:02:49;333.50;2329.60
55008;DHT22;40902;45.116;21.296;2024-03-25T13:05:14;333.50;2329.60
55008;DHT22;40902;45.116;21.296;2024-03-25T13:29:36;332.90;2329.60
55008;DHT22;40902;45.116;21.296;2024-03-25T13:32:03;308.00;2304.00
55008;DHT22;40902;45.116;21.296;2024-03-25T13:34:29;308.00;2304.00
55008;DHT22;40902;45.116;21.296;2024-03-25T13:36:55;307.90;2304.00
55008;DHT22;40902;45.116;21.296;2024-03-25T13:39:20;308.10;2304.00
55008;DHT22;40902;45.116;21.296;2024-03-25T13:41:46;307.80;2304.00
55008;DHT22;40902;45.116;21.296;2024-03-25T13:44:13;307.90;2304.00
55008;DHT22;40902;45.116;21.296;2024-03-25T13:46:39;307.90;2304.00
55008;DHT22;40902;45.116;21.296;2024-03-25T13:49:05;308.10;2304.00
55008;DHT22;40902;45.116;21.296;2024-03-25T13:51:31;332.80;2329.60
55008;DHT22;40902;45.116;21.296;2024-03-25T13:53:56;332.90;2329.60
55008;DHT22;40902;45.116;21.296;2024-03-25T13:56:22;332.90;2329.60
55008;DHT22;40902;45.116;21.296;2024-03-25T13:58:48;333.00;2329.60
55008;DHT22;40902;45.116;21.296;2024-03-25T14:01:14;333.00;2329.60
55008;DHT22;40902;45.116;21.296;2024-03-25T14:03:40;333.00;2329.60
55008;DHT22;40902;45.116;21.296;2024-03-25T14:06:06;333.00;2329.60
55008;DHT22;40902;45.116;21.296;2024-03-25T14:08:32;308.10;2304.00
55008;DHT22;40902;45.116;21.296;2024-03-25T14:10:59;308.00;2304.00
55008;DHT22;40902;45.116;21.296;2024-03-25T14:13:25;307.90;2304.00
55008;DHT22;40902;45.116;21.296;2024-03-25T14:15:51;307.80;2304.00
55008;DHT22;40902;45.116;21.296;2024-03-25T14:18:17;307.70;2304.00
55008;DHT22;40902;45.116;21.296;2024-03-25T14:20:43;307.60;2304.00
55008;DHT22;40902;45.116;21.296;2024-03-25T14:23:10;307.60;2304.00
55008;DHT22;40902;45.116;21.296;2024-03-25T14:25:37;307.60;2304.00
55008;DHT22;40902;45.116;21.296;2024-03-25T14:28:03;307.50;2304.00
55008;DHT22;40902;45.116;21.296;2024-03-25T14:30:29;307.60;2304.00
55008;DHT22;40902;45.116;21.296;2024-03-25T14:32:55;307.90;2304.00
55008;DHT22;40902;45.116;21.296;2024-03-25T14:35:21;307.90;2304.00
55008;DHT22;40902;45.116;21.296;2024-03-25T14:37:48;308.00;2304.00
55008;DHT22;40902;45.116;21.296;2024-03-25T14:40:15;308.10;2304.00
55008;DHT22;40902;45.116;21.296;2024-03-25T14:42:43;308.10;2304.00
55008;DHT22;40902;45.116;21.296;2024-03-25T14:45:09;332.80;2329.60
55008;DHT22;40902;45.116;21.296;2024-03-25T14:47:35;308.10;2201.60
55008;DHT22;40902;45.116;21.296;2024-03-25T14:50:02;308.10;2124.80
55008;DHT22;40902;45.116;21.296;2024-03-25T14:52:30;332.90;2124.80
55008;DHT22;40902;45.116;21.296;2024-03-25T14:54:56;333.00;2099.20
55008;DHT22;40902;45.116;21.296;2024-03-25T14:57:22;333.10;2048.00
55008;DHT22;40902;45.116;21.296;2024-03-25T14:59:48;333.30;2073.60
55008;DHT22;40902;45.116;21.296;2024-03-25T15:02:13;333.30;2048.00
55008;DHT22;40902;45.116;21.296;2024-03-25T15:04:39;333.30;2048.00
55008;DHT22;40902;45.116;21.296;2024-03-25T15:07:10;333.20;2073.60
55008;DHT22;40902;45.116;21.296;2024-03-25T15:09:36;333.30;2048.00
55008;DHT22;40902;45.116;21.296;2024-03-25T15:12:03;333.20;2073.60
55008;DHT22;40902;45.116;21.296;2024-03-25T15:14:29;333.20;2073.60
55008;DHT22;40902;45.116;21.296;2024-03-25T15:16:59;333.10;2073.60
55008;DHT22;40902;45.116;21.296;2024-03-25T15:19:25;333.00;2073.60
55008;DHT22;40902;45.116;21.296;2024-03-25T15:21:52;333.00;2124.80
55008;DHT22;40902;45.116;21.296;2024-03-25T15:24:17;333.10;2150.40
55008;DHT22;40902;45.116;21.296;2024-03-25T15:26:43;333.10;2124.80
55008;DHT22;40902;45.116;21.296;2024-03-25T15:29:09;333.20;2150.40
55008;DHT22;40902;45.116;21.296;2024-03-25T15:31:35;333.10;2099.20
55008;DHT22;40902;45.116;21.296;2024-03-25T15:34:01;333.10;2099.20
55008;DHT22;40902;45.116;21.296;2024-03-25T15:36:27;333.60;2124.80
55008;DHT22;40902;45.116;21.296;2024-03-25T15:38:56;333.40;2099.20
55008;DHT22;40902;45.116;21.296;2024-03-25T16:08:20;359.20;2099.20
55008;DHT22;40902;45.116;21.296;2024-03-25T16:10:46;359.30;2073.60
55008;DHT22;40902;45.116;21.296;2024-03-25T16:15:38;359.20;2073.60
55008;DHT22;40902;45.116;21.296;2024-03-25T16:18:04;359.00;2073.60
55008;DHT22;40902;45.116;21.296;2024-03-25T16:20:31;358.70;2124.80
55008;DHT22;40902;45.116;21.296;2024-03-25T16:22:57;333.70;2150.40
55008;DHT22;40902;45.116;21.296;2024-03-25T16:25:23;333.70;2150.40
55008;DHT22;40902;45.116;21.296;2024-03-25T16:27:50;333.50;2176.00
55008;DHT22;40902;45.116;21.296;2024-03-25T16:30:17;333.50;2176.00
55008;DHT22;40902;45.116;21.296;2024-03-25T16:32:43;333.40;2201.60
55008;DHT22;40902;45.116;21.296;2024-03-25T16:35:09;333.30;2201.60
55008;DHT22;40902;45.116;21.296;2024-03-25T16:37:35;333.20;2227.20
55008;DHT22;40902;45.116;21.296;2024-03-25T16:40:01;333.20;2252.80
55008;DHT22;40902;45.116;21.296;2024-03-25T16:42:27;333.10;2252.80
55008;DHT22;40902;45.116;21.296;2024-03-25T16:44:53;333.00;2278.40
55008;DHT22;40902;45.116;21.296;2024-03-25T16:47:19;333.00;2278.40
55008;DHT22;40902;45.116;21.296;2024-03-25T16:49:44;332.90;2278.40
55008;DHT22;40902;45.116;21.296;2024-03-25T16:52:11;332.90;2304.00
55008;DHT22;40902;45.116;21.296;2024-03-25T16:54:36;332.90;2304.00
55008;DHT22;40902;45.116;21.296;2024-03-25T16:57:02;332.80;2329.60
55008;DHT22;40902;45.116;21.296;2024-03-25T16:59:29;308.10;2304.00
55008;DHT22;40902;45.116;21.296;2024-03-25T17:01:55;308.10;2304.00
55008;DHT22;40902;45.116;21.296;2024-03-25T17:04:21;308.10;2304.00
55008;DHT22;40902;45.116;21.296;2024-03-25T17:06:47;308.10;2304.00
55008;DHT22;40902;45.116;21.296;2024-03-25T17:09:13;308.00;2304.00
55008;DHT22;40902;45.116;21.296;2024-03-25T17:11:40;308.00;2304.00
55008;DHT22;40902;45.116;21.296;2024-03-25T17:14:06;308.00;2304.00
55008;DHT22;40902;45.116;21.296;2024-03-25T17:16:32;308.00;2304.00
55008;DHT22;40902;45.116;21.296;2024-03-25T17:18:59;308.00;2304.00
55008;DHT22;40902;45.116;21.296;2024-03-25T17:21:24;308.10;2304.00
55008;DHT22;40902;45.116;21.296;2024-03-25T17:23:53;308.00;2304.00
55008;DHT22;40902;45.116;21.296;2024-03-25T17:26:19;308.00;2304.00
55008;DHT22;40902;45.116;21.296;2024-03-25T17:28:45;307.90;2304.00
55008;DHT22;40902;45.116;21.296;2024-03-25T17:31:11;307.90;2304.00
55008;DHT22;40902;45.116;21.296;2024-03-25T17:33:41;307.90;2304.00
55008;DHT22;40902;45.116;21.296;2024-03-25T17:36:07;307.80;2304.00
55008;DHT22;40902;45.116;21.296;2024-03-25T17:38:34;307.70;2304.00
55008;DHT22;40902;45.116;21.296;2024-03-25T17:41:01;307.70;2304.00
55008;DHT22;40902;45.116;21.296;2024-03-25T17:43:27;307.80;2304.00
55008;DHT22;40902;45.116;21.296;2024-03-25T17:45:53;307.60;2304.00
55008;DHT22;40902;45.116;21.296;2024-03-25T17:48:22;307.60;2304.00
55008;DHT22;40902;45.116;21.296;2024-03-25T17:50:59;307.60;2304.00
55008;DHT22;40902;45.116;21.296;2024-03-25T17:58:18;307.90;2304.00
55008;DHT22;40902;45.116;21.296;2024-03-25T18:00:44;307.70;2304.00
55008;DHT22;40902;45.116;21.296;2024-03-25T18:03:10;307.80;2304.00
55008;DHT22;40902;45.116;21.296;2024-03-25T18:05:36;307.40;2304.00
55008;DHT22;40902;45.116;21.296;2024-03-25T18:08:02;307.40;2304.00
55008;DHT22;40902;45.116;21.296;2024-03-25T18:10:28;307.60;2304.00
55008;DHT22;40902;45.116;21.296;2024-03-25T18:12:54;307.40;2304.00
55008;DHT22;40902;45.116;21.296;2024-03-25T18:15:19;307.60;2304.00
55008;DHT22;40902;45.116;21.296;2024-03-25T18:17:45;307.40;2304.00
55008;DHT22;40902;45.116;21.296;2024-03-25T18:20:11;307.30;2304.00
55008;DHT22;40902;45.116;21.296;2024-03-25T18:22:37;307.60;2304.00
55008;DHT22;40902;45.116;21.296;2024-03-25T18:32:22;307.60;2304.00
55008;DHT22;40902;45.116;21.296;2024-03-25T18:34:48;307.60;2304.00
55008;DHT22;40902;45.116;21.296;2024-03-25T18:37:14;307.30;2304.00
55008;DHT22;40902;45.116;21.296;2024-03-25T18:39:40;307.30;2304.00
55008;DHT22;40902;45.116;21.296;2024-03-25T18:42:10;307.20;2304.00
55008;DHT22;40902;45.116;21.296;2024-03-25T18:44:36;307.20;2304.00
55008;DHT22;40902;45.116;21.296;2024-03-25T18:47:01;307.20;2304.00
55008;DHT22;40902;45.116;21.296;2024-03-25T18:49:28;282.50;2278.40
55008;DHT22;40902;45.116;21.296;2024-03-25T18:51:54;282.50;2278.40
55008;DHT22;40902;45.116;21.296;2024-03-25T18:54:20;282.50;2278.40
55008;DHT22;40902;45.116;21.296;2024-03-25T18:56:46;282.50;2278.40
55008;DHT22;40902;45.116;21.296;2024-03-25T18:59:11;282.50;2278.40
55008;DHT22;40902;45.116;21.296;2024-03-25T19:01:37;282.30;2278.40
55008;DHT22;40902;45.116;21.296;2024-03-25T19:04:03;282.30;2278.40
55008;DHT22;40902;45.116;21.296;2024-03-25T19:06:31;282.30;2278.40